Flight Track Log - Related Links

Times and Time Zones

All times are in EDT time to prevent confusion due to time zone crossing. See the BAW2648 flight status page for this flight to view local times or setup timezone preferences in your user account.

Time Position Orientation Groundspeed Altitude Reporting Facility
EDT Latitude Longitude Course Direction KTS MPH feet Rate Location/Type
Tue 08:02:06 AM 51.1420 -0.2357 91° East 174 200 1,300  Level FlightAware UK
Tue 08:02:07 AM 51.1420 -0.2340 257° West 170 196 1,400 1,556 Climbing FlightAware ADS-B
Tue 08:02:33 AM 51.1380 -0.2680 259° West 196 226 2,000 1,429 Climbing FlightAware ADS-B
Tue 08:02:49 AM 51.1390 -0.2920 274° West 210 242 2,400 1,862 Climbing FlightAware ADS-B
Tue 08:03:02 AM 51.1470 -0.3060 312° West 209 241 2,900 2,500 Climbing FlightAware ADS-B
Tue 08:03:13 AM 51.1590 -0.3120 343° North 213 245 3,400 2,154 Climbing FlightAware ADS-B
Tue 08:03:41 AM 51.1850 -0.2949 22° Northeast 224 258 4,300 1,818 Climbing FlightAware ADS-B
Tue 08:03:46 AM 51.1886 -0.2908 35° Northeast 229 264 4,400 600 Climbing FlightAware ADS-B
Tue 08:03:51 AM 51.1928 -0.2848 42° Northeast 240 276 4,400  Level FlightAware ADS-B
Tue 08:03:55 AM 51.1959 -0.2790 50° Northeast 246 283 4,400 750 Level FlightAware ADS-B
Tue 08:03:59 AM 51.1981 -0.2729 60° Northeast 254 292 4,500 1,125 Climbing FlightAware ADS-B
Tue 08:04:11 AM 51.2022 -0.2514 73° East 263 303 4,700 1,826 Climbing FlightAware ADS-B
Tue 08:04:22 AM 51.2020 -0.2291 91° East 278 320 5,200 3,111 Climbing FlightAware ADS-B
Tue 08:04:38 AM 51.1992 -0.1967 98° East 278 320 6,100 3,176 Climbing FlightAware ADS-B
Tue 08:04:56 AM 51.1956 -0.1592 99° East 279 321 7,000 3,000 Climbing FlightAware ADS-B
Tue 08:05:12 AM 51.1924 -0.1268 99° East 281 323 7,800 2,813 Climbing FlightAware ADS-B
Tue 08:05:28 AM 51.1892 -0.0942 99° East 287 330 8,500 2,129 Climbing FlightAware ADS-B
Tue 08:05:43 AM 51.1858 -0.0620 100° East 289 333 8,900 1,000 Climbing FlightAware ADS-B
Tue 08:05:58 AM 51.1824 -0.0296 100° East 290 334 9,000 750 Climbing FlightAware ADS-B
Tue 08:06:15 AM 51.1787 0.0060 99° East 288 331 9,300 1,412 Climbing FlightAware ADS-B
Tue 08:06:32 AM 51.1750 0.0407 100° East 293 337 9,800 1,579 Climbing FlightAware ADS-B
Tue 08:06:53 AM 51.1715 0.0869 97° East 297 342 10,300 1,474 Climbing FlightAware ADS-B
Tue 08:07:29 AM 51.1723 0.1687 89° East 329 379 11,200 1,352 Climbing FlightAware ADS-B
Tue 08:08:04 AM 51.1740 0.2576 88° East 359 413 11,900 1,636 Climbing FlightAware ADS-B
Tue 08:08:35 AM 51.1752 0.3401 89° East 368 423 13,000 2,226 Climbing FlightAware ADS-B
Tue 08:09:06 AM 51.1763 0.4269 89° East 374 430 14,200 2,190 Climbing FlightAware ADS-B
Tue 08:09:38 AM 51.1776 0.5131 89° East 378 435 15,300 1,935 Climbing FlightAware ADS-B
Tue 08:10:08 AM 51.1790 0.5982 88° East 389 448 16,200 1,574 Climbing FlightAware ADS-B
Tue 08:10:39 AM 51.1807 0.6878 88° East 399 459 16,900 1,770 Climbing FlightAware ADS-B
Tue 08:11:09 AM 51.1831 0.7774 88° East 401 461 18,000 2,100 Climbing FlightAware ADS-B
Tue 08:11:39 AM 51.1854 0.8664 88° East 404 465 19,000 1,770 Climbing FlightAware ADS-B
Tue 08:12:10 AM 51.1875 0.9588 88° East 412 474 19,800 1,574 Climbing FlightAware ADS-B
Tue 08:12:40 AM 51.1889 1.0506 89° East 418 481 20,600 1,594 Climbing FlightAware ADS-B
Tue 08:13:14 AM 51.1902 1.1540 89° East 423 487 21,500 1,592 Climbing FlightAware ADS-B
Tue 08:13:29 AM 51.1899 1.2006 91° East 423 487 21,900 1,532 Climbing FlightAware ADS-B
Tue 08:14:01 AM 51.1842 1.3032 95° East 426 490 22,700 1,333 Climbing FlightAware ADS-B
Tue 08:14:32 AM 51.1784 1.3990 95° East 431 496 23,300 1,132 Climbing FlightAware ADS-B
Tue 08:14:54 AM 51.1733 1.4685 97° East 435 501 23,700 1,000 Climbing FlightAware ADS-B
Tue 08:15:26 AM 51.1603 1.5701 101° East 441 507 24,200 1,031 Climbing FlightAware ADS-B
Tue 08:15:58 AM 51.1464 1.6700 102° East 447 514 24,800 1,048 Climbing FlightAware ADS-B
Tue 08:16:29 AM 51.1330 1.7630 103° East 449 517 25,300 1,050 Climbing FlightAware ADS-B (CYTZ)
Tue 08:16:38 AM 51.1282 1.8002 102° East 451 519 25,500 1,200 Climbing FlightAware ADS-B
Tue 08:17:09 AM 51.1147 1.9007 102° East 453 521 26,100 1,167 Climbing FlightAware ADS-B
Tue 08:17:50 AM 51.0970 2.0310 102° East 454 522 26,900 1,037 Climbing FlightAware ADS-B (CYTZ)
Tue 08:18:30 AM 51.0800 2.1610 102° East 459 528 27,500 944 Climbing FlightAware ADS-B
Tue 08:19:19 AM 51.0565 2.3324 102° East 460 529 28,300 947 Climbing FlightAware UK
Tue 08:19:27 AM 51.0560 2.3450 102° East 462 532 28,400 583 Climbing FlightAware ADS-B
Tue 08:20:31 AM 51.0260 2.5767 102° East 464 534 29,000 529 Climbing FlightAware UK
Tue 08:20:35 AM 51.0270 2.5740 102° East 479 551 29,000 857 Level FlightAware ADS-B
Tue 08:21:13 AM 51.0083 2.7231 102° East 466 536 29,600 878 Climbing FlightAware UK
Tue 08:21:16 AM 51.0090 2.7230 102° East 483 556 29,600 1,667 Level FlightAware ADS-B
Tue 08:21:49 AM 50.9934 2.8481 102° East 458 527 30,600 1,674 Climbing FlightAware UK
Tue 08:21:59 AM 50.9910 2.8740 102° East 473 544 30,800 1,500 Climbing FlightAware ADS-B
Tue 08:22:37 AM 50.9780 3.0040 99° East 467 537 31,800 1,324 Climbing FlightAware ADS-B
Tue 08:23:07 AM 50.9674 3.1123 99° East 454 522 32,300 1,143 Climbing FlightAware UK
Tue 08:23:19 AM 50.9640 3.1450 99° East 461 531 32,600 1,200 Climbing FlightAware ADS-B
Tue 08:23:57 AM 50.9450 3.2690 104° East 456 525 33,300 960 Climbing FlightAware ADS-B
Tue 08:24:34 AM 50.9270 3.3820 104° East 455 524 33,800 477 Climbing FlightAware ADS-B
Tue 08:25:25 AM 50.8976 3.5603 104° East 454 522 34,000 222 Climbing FlightAware UK
Tue 08:25:28 AM 50.8970 3.5640 104° East 459 528 34,000 837 Level FlightAware ADS-B
Tue 08:26:08 AM 50.8760 3.6910 105° East 455 524 34,600 714 Climbing FlightAware ADS-B
Tue 08:26:52 AM 50.8520 3.8350 105° East 457 526 35,000 273 Climbing FlightAware ADS-B
Tue 08:27:36 AM 50.8270 3.9770 106° East 463 533 35,000  Level FlightAware ADS-B
Tue 08:28:17 AM 50.8050 4.1070 105° East 459 528 35,000  Level FlightAware ADS-B
Tue 08:29:01 AM 50.7810 4.2480 105° East 458 527 35,000  Level FlightAware ADS-B
Tue 08:29:41 AM 50.7580 4.3750 106° East 457 526 35,000  Level FlightAware ADS-B
Tue 08:30:25 AM 50.7330 4.5180 105° East 457 526 35,000  Level FlightAware ADS-B
Tue 08:31:05 AM 50.7010 4.6400 112° Southeast 451 519 35,000  Level FlightAware ADS-B
Tue 08:31:45 AM 50.6570 4.7510 122° Southeast 448 516 35,000  Level FlightAware ADS-B
Tue 08:32:29 AM 50.6080 4.8720 123° Southeast 449 517 35,000  Level FlightAware ADS-B
Tue 08:33:09 AM 50.5640 4.9820 122° Southeast 451 519 35,000  Level FlightAware ADS-B
Tue 08:33:53 AM 50.5140 5.1050 123° Southeast 452 520 35,000  Level FlightAware ADS-B
Tue 08:34:34 AM 50.4690 5.2150 123° Southeast 452 520 35,000  Level FlightAware ADS-B
Tue 08:35:18 AM 50.4240 5.3340 121° Southeast 458 527 35,000  Level FlightAware ADS-B
Tue 08:35:56 AM 50.3960 5.4600 109° East 464 534 35,000  Level FlightAware ADS-B
Tue 08:36:42 AM 50.3670 5.6110 107° East 464 534 35,000  Level FlightAware ADS-B
Tue 08:37:22 AM 50.3450 5.7280 106° East 463 533 35,000  Level FlightAware ADS-B
Tue 08:38:04 AM 50.3190 5.8630 107° East 462 532 35,000  Level FlightAware ADS-B
Tue 08:38:47 AM 50.2900 6.0100 107° East 462 532 35,000  Level FlightAware ADS-B
Tue 08:39:31 AM 50.2630 6.1460 107° East 463 533 35,000  Level FlightAware ADS-B
Tue 08:40:05 AM 50.2420 6.2570 106° East 462 532 35,000  Level FlightAware ADS-B
Tue 08:40:51 AM 50.2130 6.3990 108° East 461 531 35,000  Level FlightAware ADS-B
Tue 08:41:33 AM 50.1860 6.5380 107° East 459 528 35,000  Level FlightAware ADS-B
Tue 08:42:19 AM 50.1580 6.6780 107° East 459 528 35,000  Level FlightAware ADS-B
Tue 08:42:59 AM 50.1310 6.8070 108° East 459 528 35,000  Level FlightAware ADS-B
Tue 08:43:43 AM 50.1040 6.9420 107° East 459 528 35,000  Level FlightAware ADS-B
Tue 08:44:15 AM 50.0830 7.0460 107° East 459 528 35,000  Level FlightAware ADS-B
Tue 08:44:59 AM 50.0540 7.1860 108° East 460 529 35,000  Level FlightAware ADS-B
Tue 08:45:39 AM 50.0280 7.3120 108° East 460 529 35,000  Level FlightAware ADS-B
Tue 08:46:20 AM 50.0010 7.4400 108° East 460 529 35,000  Level FlightAware ADS-B
Tue 08:46:57 AM 49.9760 7.5580 108° East 460 529 35,000  Level FlightAware ADS-B
Tue 08:47:37 AM 49.9500 7.6820 108° East 461 531 35,000  Level FlightAware ADS-B
Tue 08:48:18 AM 49.9240 7.8060 108° East 462 532 35,000  Level FlightAware ADS-B
Tue 08:48:57 AM 49.8960 7.9340 109° East 462 532 35,000  Level FlightAware ADS-B
Tue 08:49:33 AM 49.8720 8.0460 108° East 462 532 35,000  Level FlightAware ADS-B
Tue 08:50:09 AM 49.8480 8.1590 108° East 463 533 35,000  Level FlightAware ADS-B
Tue 08:50:53 AM 49.8130 8.2960 112° Southeast 460 529 35,000  Level FlightAware ADS-B
Tue 08:51:37 AM 49.7570 8.4090 127° Southeast 455 524 35,000  Level FlightAware ADS-B
Tue 08:52:17 AM 49.6890 8.4830 145° Southeast 451 519 35,000  Level FlightAware ADS-B
Tue 08:53:01 AM 49.6100 8.5550 149° Southeast 450 518 35,000  Level FlightAware ADS-B
Tue 08:53:45 AM 49.5310 8.6250 150° Southeast 449 517 35,000  Level FlightAware ADS-B
Tue 08:54:27 AM 49.4550 8.6780 156° South 448 516 35,000  Level FlightAware ADS-B
Tue 08:55:07 AM 49.3750 8.7320 156° South 448 516 35,000  Level FlightAware ADS-B
Tue 08:55:37 AM 49.3210 8.7680 157° South 448 516 35,000  Level FlightAware ADS-B
Tue 08:56:21 AM 49.2380 8.8230 157° South 448 516 35,000  Level FlightAware ADS-B
Tue 08:57:04 AM 49.1570 8.8770 156° South 440 506 35,000  Level FlightAware ADS-B
Tue 08:57:44 AM 49.0820 8.9260 157° South 440 506 35,000  Level FlightAware ADS-B
Tue 08:58:29 AM 48.9950 8.9840 156° South 440 506 35,000  Level FlightAware ADS-B
Tue 08:59:09 AM 48.9190 9.0330 157° South 440 506 35,000  Level FlightAware ADS-B
Tue 08:59:54 AM 48.8350 9.0880 157° South 442 509 35,000  Level FlightAware ADS-B
Tue 09:00:44 AM 48.7360 9.1520 157° South 451 519 35,000  Level FlightAware ADS-B
Tue 09:01:24 AM 48.6630 9.2000 157° South 452 520 35,000  Level FlightAware ADS-B
Tue 09:02:06 AM 48.5880 9.2480 157° South 452 520 35,000  Level FlightAware ADS-B
Tue 09:02:46 AM 48.5060 9.3010 157° South 452 520 35,000  Level FlightAware ADS-B
Tue 09:03:33 AM 48.4170 9.3580 157° South 451 519 35,000  Level FlightAware ADS-B
Tue 09:04:09 AM 48.3490 9.4020 157° South 451 519 35,000  Level FlightAware ADS-B
Tue 09:04:49 AM 48.2700 9.4640 152° Southeast 453 521 35,000  Level FlightAware ADS-B
Tue 09:05:35 AM 48.1910 9.5460 145° Southeast 454 522 35,000  Level FlightAware ADS-B
Tue 09:06:17 AM 48.1200 9.6210 145° Southeast 454 522 35,000  Level FlightAware ADS-B
Tue 09:07:03 AM 48.0380 9.7060 145° Southeast 454 522 35,000  Level FlightAware ADS-B
Tue 09:07:42 AM 47.9730 9.7750 145° Southeast 453 521 35,000  Level FlightAware ADS-B
Tue 09:08:20 AM 47.9160 9.8350 145° Southeast 453 521 35,000  Level FlightAware ADS-B
Tue 09:09:05 AM 47.8320 9.9210 145° Southeast 453 521 35,000  Level FlightAware ADS-B
Tue 09:09:45 AM 47.7660 9.9900 145° Southeast 451 519 35,000  Level FlightAware ADS-B
Tue 09:10:33 AM 47.6880 10.0700 145° Southeast 452 520 35,000  Level FlightAware ADS-B
Tue 09:11:25 AM 47.6150 10.1440 146° Southeast 450 518 35,000  Level FlightAware ADS-B
Tue 09:12:23 AM 47.5210 10.2410 145° Southeast 449 517 35,000  Level FlightAware ADS-B
Tue 09:13:07 AM 47.4150 10.3480 146° Southeast 450 518 35,000  Level FlightAware ADS-B
Tue 09:13:46 AM 47.3500 10.4140 145° Southeast 451 519 35,000  Level FlightAware ADS-B
Tue 09:14:32 AM 47.2690 10.4960 146° Southeast 452 520 35,000  Level FlightAware ADS-B
Tue 09:15:10 AM 47.2030 10.5620 146° Southeast 454 522 35,000  Level FlightAware ADS-B
Tue 09:15:55 AM 47.1280 10.6380 145° Southeast 455 524 35,000  Level FlightAware ADS-B
Tue 09:16:27 AM 47.0700 10.6960 146° Southeast 455 524 35,000  Level FlightAware ADS-B
Tue 09:17:12 AM 46.9870 10.7630 151° Southeast 458 527 35,000  Level FlightAware ADS-B
Tue 09:17:52 AM 46.9220 10.8350 143° Southeast 451 519 35,000  Level FlightAware ADS-B
Tue 09:18:27 AM 46.8720 10.9140 133° Southeast 455 524 35,000  Level FlightAware ADS-B
Tue 09:19:12 AM 46.8080 11.0170 132° Southeast 455 524 35,000  Level FlightAware ADS-B
Tue 09:19:52 AM 46.7520 11.1070 132° Southeast 455 524 35,000  Level FlightAware ADS-B
Tue 09:20:37 AM 46.6890 11.2070 133° Southeast 457 526 35,000  Level FlightAware ADS-B
Tue 09:21:12 AM 46.6380 11.2870 133° Southeast 458 527 35,000  Level FlightAware ADS-B
Tue 09:21:57 AM 46.5740 11.3880 133° Southeast 453 521 35,000  Level FlightAware ADS-B
Tue 09:22:38 AM 46.5150 11.4820 132° Southeast 454 522 35,000 67 Level FlightAware ADS-B
Tue 09:23:27 AM 46.4460 11.5900 133° Southeast 453 521 35,100 467 Climbing FlightAware ADS-B
Tue 09:24:08 AM 46.3870 11.6820 133° Southeast 455 524 35,700 918 Climbing FlightAware ADS-B
Tue 09:24:52 AM 46.3220 11.7840 133° Southeast 452 520 36,400 759 Climbing FlightAware ADS-B
Tue 09:25:27 AM 46.2740 11.8580 133° Southeast 452 520 36,700 480 Climbing FlightAware ADS-B
Tue 09:26:07 AM 46.2160 11.9480 133° Southeast 447 514 37,000 212 Climbing FlightAware ADS-B
Tue 09:26:52 AM 46.1530 12.0450 133° Southeast 447 514 37,000  Level FlightAware ADS-B
Tue 09:27:37 AM 46.0880 12.1460 133° Southeast 444 511 37,000  Level FlightAware ADS-B
Tue 09:28:18 AM 46.0380 12.2380 128° Southeast 442 509 37,000  Level FlightAware ADS-B
Tue 09:28:57 AM 45.9900 12.3320 126° Southeast 441 507 37,000  Level FlightAware ADS-B
Tue 09:29:42 AM 45.9330 12.4400 127° Southeast 441 507 37,000  Level FlightAware ADS-B
Tue 09:30:33 AM 45.8780 12.5470 126° Southeast 441 507 37,000  Level FlightAware ADS-B
Tue 09:32:14 AM 45.7670 12.7580 127° Southeast 440 506 37,000  Level FlightAware ADS-B
Tue 09:33:12 AM 45.6740 12.9330 127° Southeast 440 506 37,000  Level FlightAware ADS-B
Tue 09:33:56 AM 45.6180 13.0380 127° Southeast 442 509 37,000  Level FlightAware ADS-B
Tue 09:34:36 AM 45.5680 13.1320 127° Southeast 447 514 37,000  Level FlightAware ADS-B
Tue 09:35:16 AM 45.5180 13.2260 127° Southeast 441 507 37,000  Level FlightAware ADS-B
Tue 09:36:01 AM 45.4610 13.3310 128° Southeast 446 513 37,000  Level FlightAware ADS-B
Tue 09:36:41 AM 45.4110 13.4230 128° Southeast 450 518 37,000  Level FlightAware ADS-B
Tue 09:37:21 AM 45.3600 13.5180 127° Southeast 450 518 37,000  Level FlightAware ADS-B
Tue 09:38:06 AM 45.3020 13.6250 128° Southeast 450 518 37,000  Level FlightAware ADS-B
Tue 09:38:46 AM 45.2510 13.7180 128° Southeast 449 517 37,000  Level FlightAware ADS-B
Tue 09:39:26 AM 45.2020 13.8080 128° Southeast 450 518 37,000  Level FlightAware ADS-B
Tue 09:40:11 AM 45.1440 13.9140 128° Southeast 450 518 37,000  Level FlightAware ADS-B
Tue 09:40:51 AM 45.0920 14.0080 128° Southeast 450 518 37,000  Level FlightAware ADS-B
Tue 09:41:26 AM 45.0480 14.0880 128° Southeast 451 519 37,000  Level FlightAware ADS-B
Tue 09:42:11 AM 44.9900 14.1930 128° Southeast 448 516 37,000  Level FlightAware ADS-B
Tue 09:42:51 AM 44.9380 14.2860 128° Southeast 448 516 37,000  Level FlightAware ADS-B
Tue 09:43:26 AM 44.8930 14.3660 128° Southeast 450 518 37,000  Level FlightAware ADS-B
Tue 09:44:22 AM 44.8200 14.4960 128° Southeast 451 519 37,000  Level FlightAware ADS-B
Tue 09:45:06 AM 44.7610 14.6010 128° Southeast 452 520 37,000  Level FlightAware ADS-B
Tue 09:45:46 AM 44.7090 14.6940 128° Southeast 453 521 37,000  Level FlightAware ADS-B
Tue 09:46:32 AM 44.6500 14.7980 129° Southeast 453 521 37,000  Level FlightAware ADS-B
Tue 09:47:11 AM 44.5970 14.8910 129° Southeast 451 519 37,000  Level FlightAware ADS-B
Tue 09:48:06 AM 44.5250 15.0180 128° Southeast 454 522 37,000  Level FlightAware ADS-B
Tue 09:48:41 AM 44.4810 15.0960 128° Southeast 463 533 37,000  Level FlightAware ADS-B
Tue 09:49:21 AM 44.4270 15.1890 129° Southeast 463 533 37,000  Level FlightAware ADS-B
Tue 09:50:06 AM 44.3650 15.2970 129° Southeast 463 533 37,000  Level FlightAware ADS-B
Tue 09:50:36 AM 44.3260 15.3640 129° Southeast 465 535 37,000  Level FlightAware ADS-B
Tue 09:51:22 AM 44.2680 15.4640 129° Southeast 467 537 37,000 71 Level FlightAware ADS-B
Tue 09:52:01 AM 44.2130 15.5590 129° Southeast 465 535 37,100  Climbing FlightAware ADS-B
Tue 09:52:38 AM 44.1600 15.6500 129° Southeast 460 529 37,000 -69 Descending FlightAware ADS-B
Tue 09:53:28 AM 44.1000 15.7520 129° Southeast 457 526 37,000  Level FlightAware ADS-B
Tue 09:54:13 AM 44.0340 15.8650 129° Southeast 456 525 37,000  Level FlightAware ADS-B
Tue 09:54:53 AM 43.9800 15.9560 129° Southeast 457 526 37,000  Level FlightAware ADS-B
Tue 09:55:33 AM 43.9270 16.0450 130° Southeast 457 526 37,000  Level FlightAware ADS-B
Tue 09:56:18 AM 43.8670 16.1470 129° Southeast 458 527 37,000  Level FlightAware ADS-B
Tue 09:57:00 AM 43.8120 16.2400 129° Southeast 461 531 37,000 71 Level FlightAware ADS-B
Tue 09:57:43 AM 43.7510 16.3420 130° Southeast 461 531 37,100 71 Climbing FlightAware ADS-B
Tue 09:58:24 AM 43.6970 16.4320 130° Southeast 460 529 37,100 -71 Level FlightAware ADS-B
Tue 09:59:07 AM 43.6350 16.5350 130° Southeast 461 531 37,000 -72 Descending FlightAware ADS-B
Tue 09:59:47 AM 43.5800 16.6270 130° Southeast 462 532 37,000  Level FlightAware ADS-B
Tue 10:00:29 AM 43.5250 16.7170 130° Southeast 463 533 37,000  Level FlightAware ADS-B
Tue 10:01:08 AM 43.4690 16.8100 130° Southeast 464 534 37,000  Level FlightAware ADS-B
Tue 10:01:53 AM 43.4060 16.9140 130° Southeast 462 532 37,000  Level FlightAware ADS-B
Tue 10:02:28 AM 43.3600 16.9880 131° Southeast 460 529 37,000  Level FlightAware ADS-B
Tue 10:03:13 AM 43.2970 17.0920 130° Southeast 462 532 37,000  Level FlightAware ADS-B
Tue 10:03:52 AM 43.2400 17.1850 130° Southeast 469 540 37,000  Level FlightAware ADS-B
Tue 10:04:28 AM 43.1940 17.2590 130° Southeast 474 545 37,000  Level FlightAware ADS-B
Tue 10:05:08 AM 43.1340 17.3550 131° Southeast 477 549 37,000  Level FlightAware ADS-B
Tue 10:05:53 AM 43.0700 17.4580 130° Southeast 477 549 37,000 71 Level FlightAware ADS-B
Tue 10:06:33 AM 43.0140 17.5480 130° Southeast 475 547 37,100 75 Climbing FlightAware ADS-B
Tue 10:07:13 AM 42.9560 17.6410 130° Southeast 471 542 37,100 -71 Level FlightAware ADS-B
Tue 10:07:58 AM 42.8940 17.7400 131° Southeast 468 539 37,000 -141 Descending FlightAware ADS-B
Tue 10:08:38 AM 42.8370 17.8300 131° Southeast 468 539 36,900 -825 Descending FlightAware ADS-B
Tue 10:09:18 AM 42.7790 17.9220 131° Southeast 467 537 35,900 -1,448 Descending FlightAware ADS-B
Tue 10:10:05 AM 42.7170 18.0210 130° Southeast 459 528 34,800 -1,551 Descending FlightAware ADS-B
Tue 10:10:47 AM 42.6540 18.1200 131° Southeast 461 531 33,600 -928 Descending FlightAware ADS-B
Tue 10:11:42 AM 42.5870 18.2270 130° Southeast 461 531 33,300 -1,573 Descending FlightAware ADS-B
Tue 10:12:30 AM 42.5070 18.3410 134° Southeast 454 522 30,900 -2,348 Descending FlightAware ADS-B
Tue 10:13:14 AM 42.4440 18.4260 135° Southeast 446 513 29,700 -1,884 Descending FlightAware ADS-B
Tue 10:13:56 AM 42.3810 18.5110 135° Southeast 439 505 28,200 -2,023 Descending FlightAware ADS-B
Tue 10:14:40 AM 42.3200 18.5930 135° Southeast 429 494 26,800 -1,647 Descending FlightAware ADS-B
Tue 10:15:38 AM 42.2580 18.6760 135° Southeast 421 484 25,400 -671 Descending FlightAware ADS-B
Tue 10:17:03 AM 42.1570 18.8120 135° Southeast 419 482 25,200 -2,112 Descending FlightAware ADS-B
Tue 10:17:43 AM 42.0740 18.9220 135° Southeast 393 452 21,000 -4,125 Descending FlightAware ADS-B
Tue 10:18:23 AM 42.0240 18.9870 136° Southeast 388 447 19,700 -1,313 Descending FlightAware ADS-B
Tue 10:19:51 AM 41.9220 19.1230 135° Southeast 385 443 18,200 -720 Descending FlightAware ADS-B
Tue 10:20:28 AM 41.8820 19.1760 135° Southeast 385 443 18,200  Level FlightAware ADS-B
Tue 10:21:17 AM 41.8300 19.2470 134° Southeast 385 443 18,200  Level FlightAware ADS-B
Tue 10:21:53 AM 41.7910 19.2980 136° Southeast 385 443 18,200  Level FlightAware ADS-B
Tue 10:22:53 AM 41.7270 19.3840 135° Southeast 385 443 18,200  Level FlightAware ADS-B
Tue 10:25:00 AM 41.5597 19.5649 141° Southeast  Level Estimated
Tue 10:26:00 AM 41.4805 19.6501 141° Southeast  Level Estimated
Tue 10:27:00 AM 41.4147 19.7206 141° Southeast  Level Estimated
Tue 10:28:00 AM 41.4147 19.7206 21° North  Level Estimated
Tue 10:29:00 AM 41.4147 19.7206 21° North  Level Estimated
Tue 10:30:00 AM 41.4147 19.7206 21° North  Level Estimated
Tue 10:31:00 AM 41.4147 19.7206 21° North  Level Estimated
Tue 10:32:00 AM 41.4147 19.7206 21° North  Level Estimated
Tue 10:33:00 AM 41.4147 19.7206 21° North  Level Estimated
Tue 10:34:00 AM 41.4147 19.7206 21° North  Level Estimated
Tue 10:35:00 AM 41.4147 19.7206 21° North  Level Estimated
Tue 10:36:00 AM 41.4147 19.7206 21° North  Level Estimated
Tue 10:37:00 AM 41.4147 19.7206 21° North  Level Estimated
Tue 10:38:00 AM 41.4147 19.7206 21° North  Level Estimated

Login

Don't have an account? Register now (free) for customized features, flight alerts, and more!